Time;durP1;ratioP1;P1;durP2;ratioP2;P2;SDS_P1;SDS_P2;PMS_P1;PMS_P2;Temp;Humidity;BMP_temperature;BMP_pressure;BME280_temperature;BME280_humidity;BME280_pressure;Samples;Min_cycle;Max_cycle;Signal;HPM_P1;HPM_P2
2022/02/23 00:01:41;;;;;;;7.47;2.40;;;;;;;5.06;86.71;100867.75;5039327;28;20287;-83
2022/02/23 00:04:07;;;;;;;6.63;1.97;;;;;;;4.96;87.14;100871.97;5039594;28;20222;-84
2022/02/23 00:06:34;;;;;;;11.30;2.20;;;;;;;4.95;87.32;100865.03;5069968;28;20226;-82
2022/02/23 00:09:00;;;;;;;10.03;2.03;;;;;;;5.00;87.35;100858.22;5079906;28;20226;-82
2022/02/23 00:11:27;;;;;;;8.93;2.23;;;;;;;5.02;87.08;100874.63;5080046;28;20380;-83
2022/02/23 00:13:53;;;;;;;9.77;2.80;;;;;;;5.05;86.78;100874.63;5080318;28;20200;-83
2022/02/23 00:16:21;;;;;;;9.87;2.67;;;;;;;5.11;87.18;100876.41;5079228;28;20204;-83
2022/02/23 00:18:48;;;;;;;9.53;3.53;;;;;;;5.13;86.61;100887.66;5079286;28;20460;-84
2022/02/23 00:21:14;;;;;;;16.97;3.67;;;;;;;5.17;87.42;100876.47;5081643;28;20301;-83
2022/02/23 00:23:41;;;;;;;11.83;2.97;;;;;;;5.14;87.15;100889.41;5082454;28;20230;-83
2022/02/23 00:26:08;;;;;;;11.57;2.80;;;;;;;5.14;87.26;100890.25;5078123;28;20209;-83
2022/02/23 00:28:34;;;;;;;15.17;2.53;;;;;;;5.16;87.16;100885.97;5077678;28;20858;-84
2022/02/23 00:31:00;;;;;;;9.27;2.63;;;;;;;5.13;87.37;100896.31;5077024;28;20264;-83
2022/02/23 00:33:28;;;;;;;11.73;3.00;;;;;;;5.03;87.75;100885.81;5077623;28;20265;-84
2022/02/23 00:35:55;;;;;;;9.80;2.73;;;;;;;5.14;87.77;100879.91;5071702;28;20847;-83
2022/02/23 00:38:21;;;;;;;8.17;2.23;;;;;;;5.05;88.73;100868.59;5058775;28;20237;-84
2022/02/23 00:40:47;;;;;;;9.47;3.43;;;;;;;5.00;89.62;100863.38;5056783;28;20228;-84
2022/02/23 00:43:14;;;;;;;13.10;3.40;;;;;;;5.01;89.57;100843.53;5057046;28;20210;-84
2022/02/23 00:45:40;;;;;;;12.17;2.40;;;;;;;5.04;89.57;100841.88;5057350;28;20202;-83
2022/02/23 00:48:07;;;;;;;13.03;2.97;;;;;;;5.04;89.77;100841.00;5056827;28;20225;-84
2022/02/23 00:50:35;;;;;;;9.00;2.97;;;;;;;4.99;89.38;100848.69;5056497;28;20222;-83
2022/02/23 00:53:02;;;;;;;9.77;3.10;;;;;;;5.00;89.91;100842.69;5057119;28;20257;-84
2022/02/23 00:55:28;;;;;;;13.13;2.83;;;;;;;4.92;89.78;100859.84;5056888;28;20261;-83
2022/02/23 00:57:55;;;;;;;13.30;2.73;;;;;;;4.85;89.55;100855.44;5056473;28;20790;-83
2022/02/23 01:00:21;;;;;;;14.00;2.87;;;;;;;4.88;90.24;100853.75;5056976;28;20230;-83
2022/02/23 01:02:48;;;;;;;8.93;2.70;;;;;;;4.86;89.40;100863.22;5056339;28;20558;-84
2022/02/23 01:05:14;;;;;;;12.60;3.53;;;;;;;4.85;90.08;100868.38;5064774;28;20206;-83
2022/02/23 01:07:43;;;;;;;7.97;2.40;;;;;;;4.89;89.79;100868.41;5067901;28;20234;-84
2022/02/23 01:10:10;;;;;;;10.70;2.80;;;;;;;4.97;89.08;100890.09;5076890;28;20267;-83
2022/02/23 01:12:37;;;;;;;15.97;2.70;;;;;;;5.02;89.44;100897.03;5076752;28;20201;-84
2022/02/23 01:15:05;;;;;;;14.13;3.20;;;;;;;5.04;89.21;100908.28;5076408;28;20216;-84
2022/02/23 01:17:32;;;;;;;7.13;2.37;;;;;;;5.06;88.82;100909.16;5077010;28;20246;-83
2022/02/23 01:19:59;;;;;;;14.77;3.20;;;;;;;5.11;88.56;100913.53;5076240;28;20227;-83
2022/02/23 01:22:26;;;;;;;14.53;3.40;;;;;;;5.06;88.00;100927.25;5076448;28;20208;-84
2022/02/23 01:24:53;;;;;;;8.47;3.17;;;;;;;5.15;87.53;100948.06;5076517;28;20204;-83
2022/02/23 01:27:20;;;;;;;12.97;2.40;;;;;;;5.08;88.71;100951.44;5076346;28;20224;-83
2022/02/23 01:29:46;;;;;;;10.23;2.90;;;;;;;5.14;88.22;100954.94;5076675;28;20201;-83
2022/02/23 01:32:13;;;;;;;10.40;2.63;;;;;;;5.20;87.04;100961.06;5076709;28;20212;-84
2022/02/23 01:34:40;;;;;;;16.17;3.30;;;;;;;5.22;87.41;100970.56;5070480;28;20256;-84
2022/02/23 01:37:06;;;;;;;7.80;3.20;;;;;;;5.25;87.79;100967.13;5067972;28;20213;-84
2022/02/23 01:39:33;;;;;;;12.20;3.27;;;;;;;5.27;87.18;100976.69;5077153;28;20234;-84
2022/02/23 01:42:01;;;;;;;8.90;2.80;;;;;;;5.22;87.09;100987.84;5076471;28;20214;-84
2022/02/23 01:44:27;;;;;;;9.17;2.70;;;;;;;5.23;86.78;101000.75;5074766;28;20210;-84
2022/02/23 01:46:54;;;;;;;10.13;2.57;;;;;;;5.16;87.04;100998.97;5073997;28;20706;-83
2022/02/23 01:49:20;;;;;;;14.33;2.50;;;;;;;5.13;87.41;100984.28;5074305;28;20235;-83
2022/02/23 01:51:47;;;;;;;11.20;3.77;;;;;;;5.13;87.29;100981.69;5073894;28;20290;-82
2022/02/23 01:54:13;;;;;;;14.73;2.93;;;;;;;5.17;87.09;100992.94;5074039;28;20230;-83
2022/02/23 01:56:40;;;;;;;11.53;3.43;;;;;;;5.16;87.41;101006.72;5074300;28;20265;-83
2022/02/23 01:59:08;;;;;;;8.70;2.40;;;;;;;5.19;86.94;101009.34;5073847;28;20573;-83
2022/02/23 02:01:34;;;;;;;15.03;2.67;;;;;;;5.18;86.77;101021.41;5074200;28;20260;-84
2022/02/23 02:04:01;;;;;;;9.00;2.80;;;;;;;5.14;87.22;101017.06;5074230;28;20221;-81
2022/02/23 02:06:27;;;;;;;10.50;3.50;;;;;;;5.20;86.66;101030.94;5064314;28;20623;-83
2022/02/23 02:08:54;;;;;;;9.63;2.80;;;;;;;5.25;86.23;101065.50;5054278;28;20235;-83
2022/02/23 02:11:20;;;;;;;13.00;2.37;;;;;;;5.27;85.47;101071.56;5053963;28;20200;-83
2022/02/23 02:13:47;;;;;;;9.63;2.00;;;;;;;5.30;85.78;101084.56;5054432;28;20212;-83
2022/02/23 02:16:14;;;;;;;14.03;2.40;;;;;;;5.26;85.84;101086.22;5054326;28;20212;-83
2022/02/23 02:18:41;;;;;;;6.43;2.50;;;;;;;5.22;85.48;101084.44;5054034;28;20198;-83
2022/02/23 02:21:08;;;;;;;6.53;2.13;;;;;;;5.20;85.93;101086.16;5053460;28;20286;-83
2022/02/23 02:23:36;;;;;;;10.03;2.60;;;;;;;5.22;85.69;101091.34;5054052;28;20252;-83
2022/02/23 02:26:02;;;;;;;15.10;3.07;;;;;;;5.26;84.90;101101.75;5053716;28;20609;-84
2022/02/23 02:28:29;;;;;;;9.57;2.47;;;;;;;5.27;85.52;101112.97;5053357;28;20250;-83
2022/02/23 02:30:55;;;;;;;10.33;3.03;;;;;;;5.36;84.44;101120.88;5053312;28;20210;-84
2022/02/23 02:33:22;;;;;;;10.13;2.40;;;;;;;5.39;84.26;101146.78;5053659;28;20208;-83
2022/02/23 02:35:49;;;;;;;11.87;2.43;;;;;;;5.37;84.50;101138.13;5062488;28;20206;-83
2022/02/23 02:38:15;;;;;;;10.77;3.60;;;;;;;5.32;84.69;101140.66;5070639;28;20221;-84
2022/02/23 02:40:43;;;;;;;10.00;2.57;;;;;;;5.37;84.68;101145.91;5074749;28;20229;-84
2022/02/23 02:43:10;;;;;;;8.00;2.37;;;;;;;5.21;85.66;101126.69;5074249;28;20229;-83
2022/02/23 02:45:37;;;;;;;14.63;2.70;;;;;;;5.27;85.87;101119.03;5074628;28;20273;-84
2022/02/23 02:48:04;;;;;;;10.90;2.53;;;;;;;5.25;85.68;101133.69;5077392;28;20240;-82
2022/02/23 02:50:30;;;;;;;7.87;2.90;;;;;;;5.22;86.15;101112.91;5078945;28;20198;-83
2022/02/23 02:52:57;;;;;;;10.17;2.63;;;;;;;5.12;86.71;101103.28;5078919;28;20337;-83
2022/02/23 02:55:24;;;;;;;11.80;2.80;;;;;;;4.98;87.07;101106.53;5080791;28;20692;-83
2022/02/23 02:57:52;;;;;;;14.13;2.83;;;;;;;4.88;87.41;101101.22;5080515;28;20231;-84
2022/02/23 03:00:19;;;;;;;8.37;2.13;;;;;;;4.80;88.07;101080.41;5079602;28;20224;-83
2022/02/23 03:02:45;;;;;;;11.40;2.97;;;;;;;4.76;88.55;101063.13;5080104;28;20206;-83
2022/02/23 03:05:12;;;;;;;14.13;3.20;;;;;;;4.81;87.84;101076.09;5071713;28;20256;-84
2022/02/23 03:07:38;;;;;;;9.73;3.27;;;;;;;4.81;88.29;101069.19;5071880;28;20221;-83
2022/02/23 03:10:06;;;;;;;14.53;3.60;;;;;;;4.81;88.41;101066.63;5079800;28;20228;-84
2022/02/23 03:12:32;;;;;;;8.10;3.40;;;;;;;4.77;88.40;101068.28;5079687;28;20208;-84
2022/02/23 03:15:00;;;;;;;17.13;3.20;;;;;;;4.83;88.50;101071.81;5080269;28;20212;-83
2022/02/23 03:17:27;;;;;;;11.03;3.10;;;;;;;4.89;88.12;101090.00;5080131;28;20231;-83
2022/02/23 03:19:55;;;;;;;8.40;2.43;;;;;;;4.86;88.76;101096.03;5079429;28;20247;-83
2022/02/23 03:22:22;;;;;;;12.87;3.00;;;;;;;4.95;87.98;101106.47;5080497;28;20202;-84
2022/02/23 03:24:48;;;;;;;9.93;2.67;;;;;;;4.90;88.23;101107.28;5080182;28;20204;-84
2022/02/23 03:27:15;;;;;;;17.50;3.73;;;;;;;4.81;88.06;101113.16;5080538;28;20266;-83
2022/02/23 03:29:41;;;;;;;10.90;2.93;;;;;;;4.77;88.25;101119.16;5080343;28;20233;-83
2022/02/23 03:32:09;;;;;;;10.50;3.30;;;;;;;4.71;88.91;101122.50;5081735;28;20269;-84
2022/02/23 03:34:35;;;;;;;12.57;2.70;;;;;;;4.74;88.55;101121.69;5074316;28;20205;-84
2022/02/23 03:37:02;;;;;;;11.07;2.60;;;;;;;4.66;89.03;101115.50;5068520;28;20274;-84
2022/02/23 03:39:29;;;;;;;11.83;2.27;;;;;;;4.67;88.80;101112.94;5060312;28;20232;-83
2022/02/23 03:41:55;;;;;;;13.30;2.70;;;;;;;4.72;87.98;101155.28;5060561;28;20237;-83
2022/02/23 03:44:21;;;;;;;15.83;2.60;;;;;;;4.83;86.73;101188.22;5060190;28;20215;-83
2022/02/23 03:46:48;;;;;;;19.60;3.03;;;;;;;4.77;86.47;101209.66;5059247;28;20229;-83
2022/02/23 03:49:16;;;;;;;17.80;3.30;;;;;;;4.78;85.35;101217.47;5060102;28;20209;-83
2022/02/23 03:51:42;;;;;;;8.30;2.43;;;;;;;4.77;84.67;101249.31;5059364;28;20202;-82
2022/02/23 03:54:09;;;;;;;11.67;2.50;;;;;;;4.83;84.68;101270.97;5059693;28;20554;-83
2022/02/23 03:56:42;;;;;;;11.33;2.97;;;;;;;4.75;85.08;101270.84;5060262;28;20248;-84
2022/02/23 03:59:10;;;;;;;9.10;2.07;;;;;;;4.55;86.00;101236.84;5059261;28;20208;-84
2022/02/23 04:01:38;;;;;;;8.53;2.47;;;;;;;4.54;85.80;101254.09;5058322;28;20238;-83
2022/02/23 04:04:05;;;;;;;12.30;2.07;;;;;;;4.43;86.30;101252.16;5058897;28;20219;-84
2022/02/23 04:06:34;;;;;;;6.17;2.00;;;;;;;4.34;86.34;101240.78;5068255;28;20227;-83
2022/02/23 04:09:02;;;;;;;12.23;2.30;;;;;;;4.41;85.96;101246.94;5059809;28;20264;-83
2022/02/23 04:11:28;;;;;;;11.17;2.63;;;;;;;4.44;85.72;101261.63;5058755;28;20247;-84
2022/02/23 04:13:55;;;;;;;9.57;2.00;;;;;;;4.45;85.69;101259.06;5060175;28;20252;-84
2022/02/23 04:16:21;;;;;;;10.37;2.07;;;;;;;4.38;85.62;101257.25;5059166;28;20300;-84
2022/02/23 04:18:48;;;;;;;15.03;2.80;;;;;;;4.29;86.57;101251.88;5059346;28;20213;-83
2022/02/23 04:21:15;;;;;;;10.70;2.27;;;;;;;4.27;86.62;101261.31;5058668;28;20279;-82
2022/02/23 04:23:43;;;;;;;9.80;2.73;;;;;;;4.32;86.98;101254.50;5060188;28;20234;-83
2022/02/23 04:26:10;;;;;;;10.77;2.57;;;;;;;4.25;86.89;101257.81;5059906;28;20232;-84
2022/02/23 04:28:36;;;;;;;13.73;2.50;;;;;;;4.12;87.15;101257.59;5058896;28;20257;-83
2022/02/23 04:31:02;;;;;;;16.17;3.47;;;;;;;4.09;87.32;101257.50;5059919;28;20202;-84
2022/02/23 04:33:29;;;;;;;14.20;2.30;;;;;;;4.11;87.42;101261.00;5060551;28;20209;-84
2022/02/23 04:35:56;;;;;;;10.53;2.97;;;;;;;4.13;87.58;101267.06;5062952;28;20277;-84
2022/02/23 04:38:22;;;;;;;9.43;2.43;;;;;;;4.11;87.49;101275.63;5077571;28;20226;-84
2022/02/23 04:40:50;;;;;;;14.60;2.77;;;;;;;4.17;87.27;101271.44;5080938;28;20292;-84
2022/02/23 04:43:17;;;;;;;10.43;3.13;;;;;;;4.28;85.95;101286.28;5081394;28;20225;-83
2022/02/23 04:45:43;;;;;;;12.27;2.47;;;;;;;4.23;85.85;101314.63;5079348;28;20205;-83
2022/02/23 04:48:10;;;;;;;10.23;2.63;;;;;;;4.25;85.75;101328.47;5079618;28;20227;-84
2022/02/23 04:50:37;;;;;;;9.80;2.43;;;;;;;4.21;85.96;101336.13;5080361;28;20201;-83
2022/02/23 04:53:03;;;;;;;12.50;2.43;;;;;;;4.17;86.12;101325.72;5080401;28;20262;-83
2022/02/23 04:55:30;;;;;;;8.97;2.57;;;;;;;4.24;86.28;101329.31;5080539;28;20276;-83
2022/02/23 04:57:58;;;;;;;6.67;2.07;;;;;;;4.25;86.12;101340.53;5080729;28;20621;-83
2022/02/23 05:00:24;;;;;;;7.33;2.07;;;;;;;4.05;86.87;101335.78;5076996;28;20274;-83
2022/02/23 05:02:51;;;;;;;11.67;3.43;;;;;;;3.99;87.70;101307.22;5076963;28;20669;-83
2022/02/23 05:05:17;;;;;;;10.30;2.53;;;;;;;3.98;88.13;101295.16;5062384;28;20217;-84
2022/02/23 05:07:43;;;;;;;9.17;2.87;;;;;;;3.97;88.61;101285.66;5064485;28;20251;-84
2022/02/23 05:10:10;;;;;;;9.50;2.67;;;;;;;3.97;89.10;101268.44;5056520;28;20260;-83
2022/02/23 05:12:36;;;;;;;7.57;2.23;;;;;;;4.04;89.18;101268.56;5057714;28;20618;-84
2022/02/23 05:15:05;;;;;;;11.33;2.37;;;;;;;3.96;89.85;101265.81;5057083;28;20205;-83
2022/02/23 05:17:32;;;;;;;12.20;2.53;;;;;;;3.96;90.14;101247.75;5057353;28;20292;-84
2022/02/23 05:19:58;;;;;;;16.23;3.53;;;;;;;3.96;90.37;101235.72;5056971;28;20263;-84
2022/02/23 05:22:25;;;;;;;11.77;3.20;;;;;;;3.91;90.60;101228.72;5057003;28;20253;-83
2022/02/23 05:24:51;;;;;;;13.83;3.63;;;;;;;3.96;90.84;101230.56;5057306;28;20585;-84
2022/02/23 05:27:18;;;;;;;12.83;2.07;;;;;;;4.01;90.76;101232.38;5057278;28;20228;-83
2022/02/23 05:29:44;;;;;;;14.60;3.33;;;;;;;4.05;90.95;101240.19;5056671;28;20255;-83
2022/02/23 05:32:12;;;;;;;14.77;3.00;;;;;;;4.06;90.55;101249.69;5065829;22;20234;-79
2022/02/23 05:34:38;;;;;;;10.87;2.97;;;;;;;4.04;91.12;101250.50;5052932;28;20213;-80
2022/02/23 05:37:05;;;;;;;13.30;3.10;;;;;;;4.02;91.27;101234.94;5052553;28;20674;-78
2022/02/23 05:39:32;;;;;;;16.10;3.77;;;;;;;4.01;91.23;101243.56;5053353;28;20719;-80
2022/02/23 05:41:59;;;;;;;10.77;2.67;;;;;;;4.11;90.91;101250.66;5053889;28;20222;-78
2022/02/23 05:44:25;;;;;;;8.37;2.90;;;;;;;4.09;91.05;101254.06;5054556;28;20211;-80
2022/02/23 05:46:51;;;;;;;12.80;3.33;;;;;;;4.13;90.83;101268.78;5054147;28;20277;-80
2022/02/23 05:49:19;;;;;;;8.03;2.90;;;;;;;4.13;91.02;101258.44;5054687;28;20260;-81
2022/02/23 05:51:47;;;;;;;12.27;2.93;;;;;;;4.14;90.76;101276.56;5054256;28;20244;-80
2022/02/23 05:54:15;;;;;;;10.00;2.37;;;;;;;4.17;90.58;101291.25;5054528;28;20210;-81
2022/02/23 05:56:42;;;;;;;13.00;3.87;;;;;;;4.09;90.87;101287.66;5054380;28;20232;-79
2022/02/23 05:59:09;;;;;;;15.70;3.90;;;;;;;4.09;90.82;101288.50;5054128;28;20262;-80
2022/02/23 06:01:36;;;;;;;15.17;3.37;;;;;;;4.13;90.50;101304.94;5054150;28;20292;-81
2022/02/23 06:04:02;;;;;;;14.70;3.27;;;;;;;4.14;90.18;101312.75;5053933;28;20254;-80
2022/02/23 06:06:31;;;;;;;8.13;2.83;;;;;;;4.23;90.11;101321.53;5036114;28;20252;-80
2022/02/23 06:08:57;;;;;;;10.10;2.90;;;;;;;4.23;89.66;101334.44;5034670;28;20747;-80
2022/02/23 06:11:24;;;;;;;11.07;2.93;;;;;;;4.26;89.88;101337.97;5034275;28;20883;-80
2022/02/23 06:13:51;;;;;;;9.70;3.00;;;;;;;4.30;89.73;101344.94;5034360;28;20293;-80
2022/02/23 06:16:19;;;;;;;10.33;2.90;;;;;;;4.28;89.75;101348.31;5034159;28;20240;-81
2022/02/23 06:18:45;;;;;;;12.70;3.23;;;;;;;4.31;89.46;101351.84;5033764;28;20270;-81
2022/02/23 06:21:12;;;;;;;13.73;2.93;;;;;;;4.33;89.50;101355.34;5035908;28;20705;-81
2022/02/23 06:23:40;;;;;;;12.47;3.47;;;;;;;4.25;89.28;101351.72;5038340;28;20681;-81
2022/02/23 06:26:06;;;;;;;11.10;2.90;;;;;;;4.23;89.23;101358.56;5037369;28;20274;-80
2022/02/23 06:28:33;;;;;;;15.07;3.73;;;;;;;4.35;88.90;101370.88;5038201;28;20218;-81
2022/02/23 06:31:00;;;;;;;15.50;3.53;;;;;;;4.30;89.01;101370.78;5037362;28;20207;-79
2022/02/23 06:33:28;;;;;;;11.33;3.13;;;;;;;4.23;89.40;101366.31;5047831;28;20229;-80
2022/02/23 06:35:55;;;;;;;20.77;3.70;;;;;;;4.14;89.61;101360.94;5057345;28;20212;-80
2022/02/23 06:38:22;;;;;;;11.50;2.93;;;;;;;4.14;89.92;101355.78;5058187;28;20205;-80
2022/02/23 06:40:51;;;;;;;8.23;2.73;;;;;;;4.13;90.21;101360.06;5057587;28;20230;-80
2022/02/23 06:43:19;;;;;;;14.83;3.80;;;;;;;4.12;90.13;101360.94;5057436;28;20257;-81
2022/02/23 06:45:46;;;;;;;9.30;2.80;;;;;;;4.12;90.20;101370.38;5057890;28;20239;-82
2022/02/23 06:48:13;;;;;;;15.80;3.00;;;;;;;4.15;90.52;101353.22;5057621;28;20207;-79
2022/02/23 06:50:40;;;;;;;18.57;4.50;;;;;;;4.15;90.28;101360.97;5057640;28;20709;-81
2022/02/23 06:53:07;;;;;;;18.30;4.33;;;;;;;4.10;90.27;101367.78;5057361;28;20230;-80
2022/02/23 06:55:34;;;;;;;12.43;2.97;;;;;;;4.09;90.55;101362.56;5058141;28;20202;-80
2022/02/23 06:58:02;;;;;;;17.03;4.20;;;;;;;4.12;90.20;101370.38;5056388;28;20212;-80
2022/02/23 07:00:29;;;;;;;15.07;3.57;;;;;;;4.08;90.65;101378.88;5056712;28;20207;-80
2022/02/23 07:02:55;;;;;;;24.87;5.17;;;;;;;4.11;90.55;101376.38;5055625;28;20256;-80
2022/02/23 07:05:22;;;;;;;25.43;4.40;;;;;;;4.12;90.68;101370.38;5056930;28;20667;-80
2022/02/23 07:07:49;;;;;;;14.97;2.83;;;;;;;4.17;90.21;101387.72;5056572;28;20211;-80
2022/02/23 07:10:22;;;;;;;11.50;3.00;;;;;;;4.17;90.30;101395.47;5058373;28;20207;-80
2022/02/23 07:12:48;;;;;;;13.17;3.73;;;;;;;4.16;90.42;101395.44;5056538;28;20230;-80
2022/02/23 07:15:16;;;;;;;11.77;3.23;;;;;;;4.22;90.49;101403.31;5056199;28;20253;-79
2022/02/23 07:17:43;;;;;;;10.27;4.20;;;;;;;4.18;90.46;101415.31;5055614;28;20201;-79
2022/02/23 07:20:10;;;;;;;10.80;3.27;;;;;;;4.20;90.62;101406.72;5055964;28;20232;-80
2022/02/23 07:22:37;;;;;;;14.50;4.53;;;;;;;4.20;90.47;101417.91;5056025;28;20233;-81
2022/02/23 07:25:04;;;;;;;12.33;3.70;;;;;;;4.18;90.55;101417.00;5056098;28;20203;-80
2022/02/23 07:27:30;;;;;;;13.23;3.50;;;;;;;4.15;90.80;101419.53;5055768;28;20214;-78
2022/02/23 07:29:56;;;;;;;15.47;3.93;;;;;;;4.18;90.74;101425.66;5056240;28;20205;-81
2022/02/23 07:32:28;;;;;;;10.67;2.40;;;;;;;4.22;90.48;101426.59;5054757;28;20229;-81
2022/02/23 07:34:55;;;;;;;11.67;3.10;;;;;;;4.23;90.21;101435.22;5052054;28;20202;-80
2022/02/23 07:37:22;;;;;;;12.00;2.93;;;;;;;4.33;90.26;101432.00;5054691;28;20674;-80
2022/02/23 07:39:53;;;;;;;8.57;2.97;;;;;;;4.41;90.29;101433.06;5055062;28;20198;-78
2022/02/23 07:42:20;;;;;;;19.80;4.23;;;;;;;4.37;90.51;101434.69;5054272;28;20257;-79
2022/02/23 07:44:47;;;;;;;12.77;4.10;;;;;;;4.53;90.40;101433.31;5054804;28;20200;-80
2022/02/23 07:47:14;;;;;;;12.30;3.33;;;;;;;4.54;89.53;101457.47;5054747;28;20202;-81
2022/02/23 07:49:44;;;;;;;12.67;3.17;;;;;;;4.63;89.34;101474.91;5053805;28;20195;-81
2022/02/23 07:52:10;;;;;;;11.00;3.77;;;;;;;4.63;88.94;101482.66;5054235;28;20787;-80
2022/02/23 07:54:36;;;;;;;8.67;3.53;;;;;;;4.57;89.53;101479.09;5054376;28;20211;-80
2022/02/23 07:57:03;;;;;;;19.33;3.50;;;;;;;4.63;88.82;101485.25;5050904;28;20612;-80
2022/02/23 07:59:31;;;;;;;22.97;3.90;;;;;;;4.58;88.58;101500.66;5054212;28;20202;-79
2022/02/23 08:01:57;;;;;;;16.20;3.63;;;;;;;4.67;88.44;101503.44;5053926;28;20237;-79
2022/02/23 08:04:23;;;;;;;15.60;4.60;;;;;;;4.76;88.50;101513.13;5052245;28;20207;-80
2022/02/23 08:06:51;;;;;;;14.30;3.23;;;;;;;4.80;88.87;101516.63;5054476;28;20201;-80
2022/02/23 08:09:18;;;;;;;10.17;3.40;;;;;;;4.77;88.57;101522.63;5053858;28;20749;-81
2022/02/23 08:11:44;;;;;;;10.70;3.13;;;;;;;4.85;88.21;101531.41;5053858;28;20299;-80
2022/02/23 08:14:11;;;;;;;11.67;3.17;;;;;;;4.88;88.02;101544.44;5053418;28;20257;-81
2022/02/23 08:19:34;;;;;;;15.63;3.80;;;;;;;4.75;88.43;101543.28;5050783;28;20253;-79
2022/02/23 08:22:04;;;;;;;11.10;3.00;;;;;;;4.82;88.45;101541.72;5053201;28;20264;-79
2022/02/23 08:24:33;;;;;;;10.37;3.77;;;;;;;4.81;88.27;101539.09;5053389;28;20229;-81
2022/02/23 08:27:01;;;;;;;13.65;4.28;;;;;;;4.82;88.49;101546.03;5053909;28;20959;-79
2022/02/23 08:29:28;;;;;;;13.20;3.53;;;;;;;4.92;87.69;101546.25;5053690;28;20196;-79
2022/02/23 08:31:56;;;;;;;17.33;3.83;;;;;;;4.93;87.79;101554.88;5053392;28;20746;-79
2022/02/23 08:34:23;;;;;;;17.63;4.40;;;;;;;4.87;87.28;101562.50;5051383;28;20709;-79
2022/02/23 08:36:49;;;;;;;10.73;3.87;;;;;;;4.95;88.05;101558.38;5052996;28;20229;-79
2022/02/23 08:39:17;;;;;;;16.00;4.13;;;;;;;5.08;87.50;101554.34;5053660;28;20200;-80
2022/02/23 08:41:45;;;;;;;17.17;4.67;;;;;;;5.08;87.43;101563.00;5053183;28;20254;-80
2022/02/23 08:44:11;;;;;;;17.40;4.13;;;;;;;5.14;87.36;101570.88;5052653;28;20586;-80
2022/02/23 08:46:40;;;;;;;10.27;3.17;;;;;;;5.21;87.36;101577.03;5053153;28;20280;-79
2022/02/23 08:49:08;;;;;;;9.73;3.20;;;;;;;5.22;87.24;101588.31;5051145;28;20252;-81
2022/02/23 08:51:35;;;;;;;14.53;3.87;;;;;;;5.28;86.52;101597.06;5052277;28;20218;-79
2022/02/23 08:54:02;;;;;;;12.67;3.43;;;;;;;5.18;86.16;101597.72;5053289;28;20197;-80
2022/02/23 08:56:30;;;;;;;15.73;4.33;;;;;;;5.18;85.93;101615.81;5053199;28;20198;-80
2022/02/23 08:58:57;;;;;;;15.63;3.23;;;;;;;5.28;86.26;101610.00;5053900;28;20721;-81
2022/02/23 09:01:25;;;;;;;12.43;3.03;;;;;;;5.41;85.81;101613.75;5052946;28;20216;-82
2022/02/23 09:03:52;;;;;;;12.63;3.47;;;;;;;5.38;85.78;101622.28;5052159;28;20208;-80
2022/02/23 09:06:19;;;;;;;12.17;3.83;;;;;;;5.41;85.26;101638.75;5050215;28;20234;-81
2022/02/23 09:08:45;;;;;;;14.17;3.73;;;;;;;5.45;85.74;101631.09;5053580;28;20304;-80
2022/02/23 09:11:12;;;;;;;12.50;3.43;;;;;;;5.38;84.66;101648.19;5053579;28;20241;-81
2022/02/23 09:13:39;;;;;;;10.07;3.60;;;;;;;5.40;84.38;101648.22;5053432;28;20337;-82
2022/02/23 09:16:06;;;;;;;9.00;2.57;;;;;;;5.42;84.42;101654.31;5052949;28;20222;-81
2022/02/23 09:18:32;;;;;;;13.30;3.87;;;;;;;5.48;84.77;101654.44;5074175;28;20200;-81
2022/02/23 09:20:59;;;;;;;12.03;3.50;;;;;;;5.54;84.21;101656.28;5075650;28;20201;-81
2022/02/23 09:23:27;;;;;;;15.37;3.87;;;;;;;5.58;84.04;101664.16;5075926;28;20226;-81
2022/02/23 09:25:53;;;;;;;14.40;3.93;;;;;;;5.64;84.61;101662.53;5057064;28;20204;-79
2022/02/23 09:28:20;;;;;;;14.63;3.67;;;;;;;5.70;84.13;101665.25;5054138;28;20233;-79
2022/02/23 09:30:47;;;;;;;9.97;3.67;;;;;;;5.58;82.63;101694.38;5053380;28;20256;-80
2022/02/23 09:33:14;;;;;;;14.67;3.30;;;;;;;5.61;83.37;101703.91;5053990;28;20229;-82
2022/02/23 09:35:41;;;;;;;17.20;3.63;;;;;;;5.63;83.36;101708.31;5047636;28;20212;-81
2022/02/23 09:38:08;;;;;;;12.10;3.47;;;;;;;5.73;83.90;101702.47;5050825;28;20208;-81
2022/02/23 09:40:36;;;;;;;13.83;3.40;;;;;;;5.76;82.74;101702.53;5053925;28;20215;-80
2022/02/23 09:43:03;;;;;;;12.17;4.10;;;;;;;5.80;82.35;101720.75;5052664;28;20227;-80
2022/02/23 09:45:29;;;;;;;8.37;3.10;;;;;;;5.84;81.95;101735.50;5052614;28;20197;-80
2022/02/23 09:47:59;;;;;;;17.70;3.77;;;;;;;5.93;82.41;101734.00;5051641;28;20246;-78
2022/02/23 09:50:26;;;;;;;8.27;2.90;;;;;;;5.98;81.41;101736.69;5043054;28;20614;-79
2022/02/23 09:52:53;;;;;;;12.37;3.40;;;;;;;5.94;80.55;101765.94;5052395;28;20216;-79
2022/02/23 09:55:22;;;;;;;16.33;3.83;;;;;;;6.06;81.43;101755.00;5053418;28;20744;-79
2022/02/23 09:57:48;;;;;;;8.67;3.57;;;;;;;6.11;81.27;101763.75;5053707;28;20208;-80
2022/02/23 10:00:16;;;;;;;12.60;3.47;;;;;;;6.12;80.17;101805.25;5056964;28;20583;-80
2022/02/23 10:02:42;;;;;;;11.33;3.47;;;;;;;6.11;80.00;101811.28;5056459;28;20296;-78
2022/02/23 10:05:10;;;;;;;12.73;4.77;;;;;;;6.13;79.36;101814.78;5055091;28;20244;-80
2022/02/23 10:07:40;;;;;;;8.83;2.97;;;;;;;6.27;79.88;101814.22;5056566;28;20215;-80
2022/02/23 10:10:09;;;;;;;9.57;2.77;;;;;;;6.29;79.85;101823.78;5054197;28;20210;-80
2022/02/23 10:12:36;;;;;;;9.20;2.80;;;;;;;6.20;78.07;101892.69;5056704;28;20220;-79
2022/02/23 10:15:12;;;;;;;9.37;2.80;;;;;;;6.24;78.76;101873.78;5057115;28;20195;-80
2022/02/23 10:17:41;;;;;;;11.90;2.77;;;;;;;6.31;77.52;101884.31;5057073;28;20198;-81
2022/02/23 10:20:22;;;;;;;12.97;3.13;;;;;;;6.41;77.95;101905.28;5054172;28;20200;-81
2022/02/23 10:22:49;;;;;;;7.90;2.67;;;;;;;6.48;77.27;101908.03;5054105;28;20681;-80
2022/02/23 10:25:22;;;;;;;8.20;2.70;;;;;;;6.52;78.07;101916.75;5057065;28;20222;-79
2022/02/23 10:27:49;;;;;;;11.27;3.87;;;;;;;6.56;78.08;101903.88;5054996;28;20201;-80
2022/02/23 10:30:27;;;;;;;10.30;3.33;;;;;;;6.65;79.48;101873.78;5056960;28;20204;-81
2022/02/23 10:32:54;;;;;;;9.40;3.20;;;;;;;6.70;78.24;101885.13;5054907;28;20234;-81
2022/02/23 10:35:27;;;;;;;10.80;2.70;;;;;;;6.72;76.87;101912.00;5051937;28;20240;-81
2022/02/23 10:37:54;;;;;;;8.13;2.87;;;;;;;6.79;77.93;101900.88;5056278;28;20203;-80
2022/02/23 10:40:20;;;;;;;17.50;3.80;;;;;;;6.85;77.50;101913.13;5056700;28;20676;-79
2022/02/23 10:42:47;;;;;;;9.10;3.07;;;;;;;6.87;77.99;101917.47;5055895;28;20602;-79
2022/02/23 10:45:17;;;;;;;11.00;2.77;;;;;;;6.84;74.36;101952.88;5055640;28;20200;-80
2022/02/23 10:47:47;;;;;;;16.03;3.10;;;;;;;6.89;75.89;101961.66;5056428;28;20208;-81
2022/02/23 10:50:16;;;;;;;8.03;2.37;;;;;;;7.00;76.17;101930.69;5055455;28;20196;-80
2022/02/23 10:52:52;;;;;;;8.33;2.83;;;;;;;7.02;74.40;101989.63;5056191;28;20220;-77
2022/02/23 10:55:22;;;;;;;10.30;3.20;;;;;;;7.15;76.67;101944.88;5056109;28;20261;-79
2022/02/23 10:57:52;;;;;;;7.10;2.47;;;;;;;7.17;75.62;101965.66;5054207;28;20208;-79
2022/02/23 11:00:20;;;;;;;12.33;2.70;;;;;;;7.18;74.85;101974.34;5056069;28;20208;-81
2022/02/23 11:02:47;;;;;;;11.27;2.90;;;;;;;7.20;73.65;102012.50;5052861;28;20231;-79
2022/02/23 11:05:14;;;;;;;8.87;2.23;;;;;;;7.26;75.26;101989.22;5054732;28;20204;-79
2022/02/23 11:07:42;;;;;;;14.17;4.13;;;;;;;7.34;75.54;101976.41;5058256;28;20251;-79
2022/02/23 11:10:13;;;;;;;12.20;3.13;;;;;;;7.40;73.52;102001.63;5061730;28;20250;-78
2022/02/23 11:12:43;;;;;;;9.97;2.73;;;;;;;7.39;71.03;102076.06;5055085;28;20624;-80
2022/02/23 11:15:11;;;;;;;6.47;2.20;;;;;;;7.50;72.22;102073.69;5057336;28;20201;-78
2022/02/23 11:17:39;;;;;;;9.10;3.13;;;;;;;7.59;71.07;102067.78;5057245;28;20225;-80
2022/02/23 11:20:07;;;;;;;6.50;2.23;;;;;;;7.59;70.98;102073.91;5056170;28;20277;-79
2022/02/23 11:22:36;;;;;;;7.80;2.03;;;;;;;7.69;71.62;102082.72;5055341;28;20224;-79
2022/02/23 11:25:03;;;;;;;9.60;2.50;;;;;;;7.77;70.76;102073.38;5056474;28;20291;-80
2022/02/23 11:27:34;;;;;;;6.17;2.10;;;;;;;7.75;69.50;102153.03;5055546;28;20203;-79
2022/02/23 11:30:05;;;;;;;11.53;2.40;;;;;;;7.83;68.92;102148.88;5055533;28;20226;-78